createdAt,value
2022-09-25T00:02:10.381Z,11.52
2022-09-25T00:04:38.216Z,11.49
2022-09-25T00:07:07.196Z,11.49
2022-09-25T00:09:36.279Z,11.49
2022-09-25T00:12:03.978Z,11.49
2022-09-25T00:14:33.321Z,11.47
2022-09-25T00:17:02.592Z,11.44
2022-09-25T00:19:50.314Z,11.40
2022-09-25T00:22:24.813Z,11.39
2022-09-25T00:24:52.761Z,11.38
2022-09-25T00:27:20.513Z,11.37
2022-09-25T00:29:48.449Z,11.36
2022-09-25T00:32:16.194Z,11.33
2022-09-25T00:34:46.241Z,11.30
2022-09-25T00:37:14.273Z,11.28
2022-09-25T00:39:42.227Z,11.25
2022-09-25T00:42:14.376Z,11.22
2022-09-25T00:45:02.827Z,11.20
2022-09-25T00:47:44.643Z,11.17
2022-09-25T00:50:28.486Z,11.11
2022-09-25T00:53:06.869Z,11.08
2022-09-25T00:55:38.238Z,11.06
2022-09-25T00:58:08.584Z,11.03
2022-09-25T01:00:36.370Z,11.00
2022-09-25T01:03:07.489Z,10.98
2022-09-25T01:05:43.711Z,10.93
2022-09-25T01:08:18.541Z,10.91
2022-09-25T01:10:48.786Z,10.90
2022-09-25T01:13:19.400Z,10.88
2022-09-25T01:15:53.335Z,10.84
2022-09-25T01:18:46.390Z,10.81
2022-09-25T01:21:56.436Z,10.78
2022-09-25T01:24:40.930Z,10.75
2022-09-25T01:27:51.508Z,10.73
2022-09-25T01:30:21.436Z,10.71
2022-09-25T01:33:05.929Z,10.71
2022-09-25T01:35:40.021Z,10.69
2022-09-25T01:38:40.054Z,10.70
2022-09-25T01:41:23.990Z,10.67
2022-09-25T01:44:02.310Z,10.61
2022-09-25T01:46:45.214Z,10.52
2022-09-25T01:49:33.931Z,10.45
2022-09-25T01:52:12.626Z,10.42
2022-09-25T01:54:53.910Z,10.40
2022-09-25T01:57:34.048Z,10.41
2022-09-25T02:00:14.393Z,10.42
2022-09-25T02:03:02.943Z,10.40
2022-09-25T02:05:45.021Z,10.41
2022-09-25T02:08:25.325Z,10.41
2022-09-25T02:11:00.607Z,10.38
2022-09-25T02:13:47.163Z,10.37
2022-09-25T02:16:34.899Z,10.33
2022-09-25T02:19:25.506Z,10.32
2022-09-25T02:22:10.047Z,10.32
2022-09-25T02:25:13.794Z,10.29
2022-09-25T02:27:45.727Z,10.26
2022-09-25T02:30:17.638Z,10.24
2022-09-25T02:32:45.454Z,10.20
2022-09-25T02:35:13.365Z,10.19
2022-09-25T02:37:43.294Z,10.19
2022-09-25T02:40:15.213Z,10.20
2022-09-25T02:43:13.445Z,10.21
2022-09-25T02:46:10.736Z,10.22
2022-09-25T02:49:06.173Z,10.22
2022-09-25T02:52:20.542Z,10.18
2022-09-25T02:55:06.838Z,10.13
2022-09-25T02:57:57.066Z,10.10
2022-09-25T03:00:27.471Z,10.06
2022-09-25T03:03:00.724Z,10.04
2022-09-25T03:05:28.909Z,10.03
2022-09-25T03:08:23.406Z,10.03
2022-09-25T03:10:55.518Z,10.01
2022-09-25T03:13:32.112Z,10.00
2022-09-25T03:16:08.237Z,10.01
2022-09-25T03:18:36.264Z,9.99
2022-09-25T03:21:08.358Z,9.98
2022-09-25T03:23:39.430Z,9.98
2022-09-25T03:26:11.634Z,9.97
2022-09-25T03:28:39.730Z,9.96
2022-09-25T03:31:13.086Z,9.95
2022-09-25T03:33:45.878Z,9.95
2022-09-25T03:36:22.077Z,9.95
2022-09-25T03:38:59.160Z,9.96
2022-09-25T03:41:35.409Z,9.96
2022-09-25T03:44:05.492Z,9.95
2022-09-25T03:46:38.556Z,9.93
2022-09-25T03:49:11.113Z,9.93
2022-09-25T03:51:39.953Z,9.94
2022-09-25T03:54:07.906Z,9.94
2022-09-25T03:56:41.869Z,9.94
2022-09-25T03:59:09.801Z,9.95
2022-09-25T04:01:43.379Z,9.92
2022-09-25T04:04:11.410Z,9.92
2022-09-25T04:06:43.201Z,9.91
2022-09-25T04:09:16.994Z,9.89
2022-09-25T04:11:49.034Z,9.88
2022-09-25T04:14:16.981Z,9.86
2022-09-25T04:16:49.156Z,9.83
2022-09-25T04:19:20.926Z,9.83
2022-09-25T04:21:52.582Z,9.82
2022-09-25T04:24:39.326Z,9.82
2022-09-25T04:27:14.528Z,9.80
2022-09-25T04:29:46.388Z,9.81
2022-09-25T04:32:34.085Z,9.79
2022-09-25T04:35:02.392Z,9.78
2022-09-25T04:37:30.931Z,9.77
2022-09-25T04:40:01.406Z,9.76
2022-09-25T04:42:29.193Z,9.75
2022-09-25T04:45:01.131Z,9.74
2022-09-25T04:47:32.835Z,9.74
2022-09-25T04:50:00.519Z,9.75
2022-09-25T04:52:32.275Z,9.77
2022-09-25T04:55:02.899Z,9.77
2022-09-25T04:57:57.232Z,9.73
2022-09-25T05:00:34.714Z,9.69
2022-09-25T05:03:09.531Z,9.66
2022-09-25T05:05:42.272Z,9.64
2022-09-25T05:08:14.274Z,9.62
2022-09-25T05:10:45.357Z,9.62
2022-09-25T05:13:13.295Z,9.64
2022-09-25T05:15:41.010Z,9.64
2022-09-25T05:18:21.398Z,9.67
2022-09-25T05:20:54.316Z,9.70
2022-09-25T05:23:26.162Z,9.73
2022-09-25T05:26:02.301Z,9.76
2022-09-25T05:28:37.460Z,9.82
2022-09-25T05:31:09.826Z,9.87
2022-09-25T05:33:37.607Z,9.90
2022-09-25T05:36:13.447Z,9.91
2022-09-25T05:38:41.392Z,9.95
2022-09-25T05:41:15.221Z,9.99
2022-09-25T05:43:47.965Z,10.03
2022-09-25T05:46:19.704Z,10.07
2022-09-25T05:48:47.798Z,10.10
2022-09-25T05:51:17.963Z,10.12
2022-09-25T05:53:47.702Z,10.14
2022-09-25T05:56:20.601Z,10.16
2022-09-25T05:58:53.048Z,10.18
2022-09-25T06:01:25.104Z,10.20
2022-09-25T06:03:52.983Z,10.22
2022-09-25T06:06:27.470Z,10.26
2022-09-25T06:08:57.416Z,10.31
2022-09-25T06:11:25.187Z,10.36
2022-09-25T06:13:57.890Z,10.40
2022-09-25T06:16:26.208Z,10.47
2022-09-25T06:18:55.284Z,10.54
2022-09-25T06:21:28.106Z,10.60
2022-09-25T06:23:58.558Z,10.66
2022-09-25T06:26:26.332Z,10.72
2022-09-25T06:29:02.848Z,10.78
2022-09-25T06:31:39.370Z,10.84
2022-09-25T06:34:12.830Z,10.91
2022-09-25T06:36:40.775Z,10.97
2022-09-25T06:39:10.670Z,11.04
2022-09-25T06:41:45.049Z,11.10
2022-09-25T06:44:13.154Z,11.16
2022-09-25T06:46:45.638Z,11.22
2022-09-25T06:49:18.538Z,11.26
2022-09-25T06:51:47.293Z,11.30
2022-09-25T06:54:15.912Z,11.34
2022-09-25T06:56:50.630Z,11.36
2022-09-25T06:59:19.978Z,11.41
2022-09-25T07:01:47.798Z,11.47
2022-09-25T07:04:15.741Z,11.54
2022-09-25T07:06:43.700Z,11.60
2022-09-25T07:09:13.052Z,11.68
2022-09-25T07:11:48.853Z,11.77
2022-09-25T07:14:16.553Z,11.85
2022-09-25T07:16:44.475Z,11.95
2022-09-25T07:19:12.159Z,12.04
2022-09-25T07:21:40.104Z,12.12
2022-09-25T07:24:09.495Z,12.17
2022-09-25T07:26:44.581Z,12.20
2022-09-25T07:29:14.351Z,12.24
2022-09-25T07:31:44.799Z,12.30
2022-09-25T07:34:16.629Z,12.41
2022-09-25T07:36:45.311Z,12.53
2022-09-25T07:39:18.151Z,12.64
2022-09-25T07:41:48.037Z,12.78
2022-09-25T07:44:29.182Z,12.95
2022-09-25T07:47:07.658Z,13.13
2022-09-25T07:49:35.728Z,13.25
2022-09-25T07:52:10.380Z,13.33
2022-09-25T07:54:42.210Z,13.39
2022-09-25T07:57:11.867Z,13.45
2022-09-25T07:59:42.452Z,13.49
2022-09-25T08:02:10.262Z,13.52
2022-09-25T08:04:38.645Z,13.55
2022-09-25T08:07:08.515Z,13.62
2022-09-25T08:09:36.489Z,13.66
2022-09-25T08:12:04.884Z,13.70
2022-09-25T08:14:35.097Z,13.75
2022-09-25T08:17:02.788Z,13.83
2022-09-25T08:19:34.691Z,13.93
2022-09-25T08:22:08.502Z,14.01
2022-09-25T08:24:40.363Z,14.07
2022-09-25T08:27:08.363Z,14.23
2022-09-25T08:29:38.502Z,14.46
2022-09-25T08:32:10.152Z,14.72
2022-09-25T08:34:44.286Z,15.12
2022-09-25T08:37:12.466Z,15.61
2022-09-25T08:39:44.352Z,16.08
2022-09-25T08:42:36.317Z,16.46
2022-09-25T08:45:43.163Z,16.83
2022-09-25T08:49:01.225Z,17.27
2022-09-25T08:51:38.766Z,17.53
2022-09-25T08:54:09.222Z,17.86
2022-09-25T08:56:40.511Z,17.96
2022-09-25T08:59:44.383Z,18.00
2022-09-25T09:02:45.710Z,18.13
2022-09-25T09:05:36.330Z,18.28
2022-09-25T09:08:11.639Z,18.68
2022-09-25T09:11:14.105Z,19.08
2022-09-25T09:13:55.089Z,19.52
2022-09-25T09:16:23.177Z,19.89
2022-09-25T09:18:55.800Z,20.23
2022-09-25T09:21:54.716Z,20.56
2022-09-25T09:24:27.429Z,20.86
2022-09-25T09:27:04.341Z,21.03
2022-09-25T09:30:09.347Z,21.18
2022-09-25T09:33:06.383Z,21.40
2022-09-25T09:36:11.817Z,21.57
2022-09-25T09:38:59.647Z,21.50
2022-09-25T09:41:52.180Z,21.53
2022-09-25T09:45:09.248Z,21.47
2022-09-25T09:48:13.575Z,21.43
2022-09-25T09:50:53.366Z,21.43
2022-09-25T09:53:48.939Z,21.41
2022-09-25T09:56:31.484Z,21.35
2022-09-25T09:59:29.761Z,21.20
2022-09-25T10:02:24.064Z,21.03
2022-09-25T10:04:56.315Z,20.94
2022-09-25T10:07:28.481Z,20.93
2022-09-25T10:09:57.801Z,20.94
2022-09-25T10:12:34.932Z,20.91
2022-09-25T10:15:07.844Z,20.88
2022-09-25T10:17:38.140Z,20.84
2022-09-25T10:20:19.725Z,20.73
2022-09-25T10:22:53.218Z,20.60
2022-09-25T10:25:37.565Z,20.42
2022-09-25T10:28:28.507Z,20.25
2022-09-25T10:30:58.555Z,19.92
2022-09-25T10:33:30.304Z,19.69
2022-09-25T10:35:59.055Z,19.52
2022-09-25T10:38:53.423Z,19.35
2022-09-25T10:41:27.703Z,19.15
2022-09-25T10:44:00.188Z,19.01
2022-09-25T10:46:50.045Z,18.85
2022-09-25T10:49:41.600Z,18.67
2022-09-25T10:52:13.102Z,18.54
2022-09-25T10:54:45.460Z,18.43
2022-09-25T10:57:34.693Z,18.34
2022-09-25T11:00:07.741Z,18.27
2022-09-25T11:02:41.064Z,18.24
2022-09-25T11:05:20.284Z,18.19
2022-09-25T11:07:52.730Z,18.10
2022-09-25T11:10:35.977Z,18.03
2022-09-25T11:13:09.563Z,17.93
2022-09-25T11:15:39.508Z,17.82
2022-09-25T11:18:32.997Z,17.72
2022-09-25T11:21:03.564Z,17.61
2022-09-25T11:23:36.049Z,17.50
2022-09-25T11:26:19.188Z,17.42
2022-09-25T11:29:04.965Z,17.32
2022-09-25T11:31:41.360Z,17.22
2022-09-25T11:34:40.630Z,17.14
2022-09-25T11:37:24.857Z,17.05
2022-09-25T11:40:46.631Z,16.98
2022-09-25T11:43:25.853Z,16.86
2022-09-25T11:46:03.173Z,16.79
2022-09-25T11:48:46.929Z,16.75
2022-09-25T11:51:37.553Z,16.71
2022-09-25T11:54:33.820Z,16.62
2022-09-25T11:57:18.208Z,16.56
2022-09-25T12:00:04.664Z,16.49
2022-09-25T12:03:08.281Z,16.45
2022-09-25T12:05:57.066Z,16.38
2022-09-25T12:08:36.063Z,16.30
2022-09-25T12:11:12.897Z,16.25
2022-09-25T12:14:17.253Z,16.21
2022-09-25T12:17:05.265Z,16.16
2022-09-25T12:20:11.963Z,16.11
2022-09-25T12:23:05.730Z,16.10
2022-09-25T12:26:03.635Z,16.09
2022-09-25T12:28:42.700Z,16.08
2022-09-25T12:31:30.890Z,16.06
2022-09-25T12:34:28.103Z,16.06
2022-09-25T12:37:27.388Z,16.06
2022-09-25T12:40:05.506Z,16.06
2022-09-25T12:42:57.679Z,16.07
2022-09-25T12:45:52.724Z,16.07
2022-09-25T12:48:33.107Z,16.08
2022-09-25T12:51:16.483Z,16.08
2022-09-25T12:53:49.049Z,16.09
2022-09-25T12:56:27.909Z,16.10
2022-09-25T12:59:17.352Z,16.11
2022-09-25T13:02:07.869Z,16.14
2022-09-25T13:05:15.908Z,16.14
2022-09-25T13:07:59.573Z,16.10
2022-09-25T13:10:38.390Z,16.11
2022-09-25T13:13:21.280Z,16.14
2022-09-25T13:15:54.860Z,16.18
2022-09-25T13:18:26.155Z,16.18
2022-09-25T13:21:04.373Z,16.16
2022-09-25T13:23:42.033Z,16.15
2022-09-25T13:26:33.755Z,16.13
2022-09-25T13:29:14.722Z,16.13
2022-09-25T13:31:46.172Z,16.13
2022-09-25T13:34:17.645Z,16.12
2022-09-25T13:36:48.738Z,16.11
2022-09-25T13:39:44.098Z,16.11
2022-09-25T13:42:33.367Z,16.11
2022-09-25T13:45:23.007Z,16.12
2022-09-25T13:48:07.479Z,16.13
2022-09-25T13:50:41.593Z,16.14
2022-09-25T13:53:18.139Z,16.14
2022-09-25T13:55:55.474Z,16.14
2022-09-25T13:58:26.102Z,16.15
2022-09-25T14:00:58.282Z,16.15
2022-09-25T14:03:46.797Z,16.16
2022-09-25T14:06:42.075Z,16.13
2022-09-25T14:09:19.062Z,16.10
2022-09-25T14:12:01.103Z,16.10
2022-09-25T14:14:46.276Z,16.09
2022-09-25T14:17:17.700Z,16.04
2022-09-25T14:19:51.516Z,16.00
2022-09-25T14:22:21.633Z,15.96
2022-09-25T14:24:50.583Z,15.86
2022-09-25T14:27:24.091Z,15.84
2022-09-25T14:29:52.194Z,15.80
2022-09-25T14:32:55.186Z,15.69
2022-09-25T14:35:39.411Z,15.58
2022-09-25T14:38:25.785Z,15.53
2022-09-25T14:41:01.556Z,15.48
2022-09-25T14:44:02.535Z,15.43
2022-09-25T14:46:34.345Z,15.40
2022-09-25T14:49:21.195Z,15.36
2022-09-25T14:51:49.206Z,15.31
2022-09-25T14:54:25.592Z,15.28
2022-09-25T14:56:59.266Z,15.25
2022-09-25T14:59:47.032Z,15.21
2022-09-25T15:02:24.474Z,15.16
2022-09-25T15:04:58.410Z,15.12
2022-09-25T15:07:29.124Z,15.09
2022-09-25T15:10:00.300Z,15.05
2022-09-25T15:12:36.389Z,15.03
2022-09-25T15:15:14.762Z,14.98
2022-09-25T15:17:51.355Z,14.94
2022-09-25T15:20:26.673Z,14.87
2022-09-25T15:23:02.574Z,14.79
2022-09-25T15:25:52.637Z,14.67
2022-09-25T15:28:26.126Z,14.58
2022-09-25T15:31:04.157Z,14.49
2022-09-25T15:33:37.482Z,14.42
2022-09-25T15:36:25.501Z,14.40
2022-09-25T15:39:00.223Z,14.33
2022-09-25T15:41:30.243Z,14.24
2022-09-25T15:44:25.617Z,14.18
2022-09-25T15:46:59.177Z,14.11
2022-09-25T15:49:45.306Z,14.05
2022-09-25T15:52:35.946Z,14.01
2022-09-25T15:55:14.732Z,13.96
2022-09-25T15:57:46.904Z,13.93
2022-09-25T16:00:47.112Z,13.92
2022-09-25T16:03:42.298Z,13.89
2022-09-25T16:06:18.779Z,13.88
2022-09-25T16:08:48.576Z,13.84
2022-09-25T16:11:22.875Z,13.80
2022-09-25T16:14:12.215Z,13.78
2022-09-25T16:16:50.545Z,13.77
2022-09-25T16:19:27.846Z,13.77
2022-09-25T16:22:00.308Z,13.75
2022-09-25T16:24:29.793Z,13.71
2022-09-25T16:27:01.498Z,13.63
2022-09-25T16:29:36.693Z,13.59
2022-09-25T16:32:21.307Z,13.53
2022-09-25T16:35:24.013Z,13.42
2022-09-25T16:37:55.827Z,13.35
2022-09-25T16:40:26.344Z,13.32
2022-09-25T16:42:59.767Z,13.30
2022-09-25T16:45:35.542Z,13.30
2022-09-25T16:48:27.717Z,13.28
2022-09-25T16:50:58.789Z,13.27
2022-09-25T16:53:28.980Z,13.25
2022-09-25T16:56:01.572Z,13.22
2022-09-25T16:58:29.586Z,13.20
2022-09-25T17:00:59.487Z,13.14
2022-09-25T17:03:47.885Z,13.08
2022-09-25T17:06:23.812Z,13.08
2022-09-25T17:08:55.334Z,13.07
2022-09-25T17:11:23.566Z,13.06
2022-09-25T17:13:53.306Z,13.02
2022-09-25T17:16:21.186Z,13.01
2022-09-25T17:18:49.215Z,13.01
2022-09-25T17:21:17.338Z,13.01
2022-09-25T17:23:48.884Z,13.02
2022-09-25T17:26:23.581Z,13.04
2022-09-25T17:28:51.941Z,13.04
2022-09-25T17:31:23.660Z,13.02
2022-09-25T17:33:51.832Z,13.01
2022-09-25T17:36:20.710Z,12.98
2022-09-25T17:38:48.795Z,12.99
2022-09-25T17:41:30.361Z,13.00
2022-09-25T17:44:03.370Z,13.01
2022-09-25T17:46:34.665Z,13.02
2022-09-25T17:49:07.014Z,13.00
2022-09-25T17:51:37.261Z,12.98
2022-09-25T17:54:06.867Z,12.98
2022-09-25T17:56:39.958Z,12.98
2022-09-25T17:59:12.320Z,12.98
2022-09-25T18:01:40.548Z,12.95
2022-09-25T18:04:21.441Z,12.95
2022-09-25T18:06:49.266Z,12.97
2022-09-25T18:09:19.054Z,12.98
2022-09-25T18:11:47.693Z,13.00
2022-09-25T18:14:17.431Z,12.99
2022-09-25T18:16:48.776Z,13.00
2022-09-25T18:19:40.189Z,13.01
2022-09-25T18:22:19.395Z,13.00
2022-09-25T18:24:58.356Z,13.00
2022-09-25T18:27:32.516Z,12.99
2022-09-25T18:30:04.429Z,12.99
2022-09-25T18:32:34.412Z,12.97
2022-09-25T18:35:03.038Z,12.98
2022-09-25T18:37:34.499Z,12.99
2022-09-25T18:40:10.004Z,12.98
2022-09-25T18:42:39.062Z,12.98
2022-09-25T18:45:12.333Z,12.97
2022-09-25T18:47:45.300Z,12.96
2022-09-25T18:50:20.947Z,12.92
2022-09-25T18:52:49.062Z,12.91
2022-09-25T18:55:17.910Z,12.89
2022-09-25T18:57:45.773Z,12.88
2022-09-25T19:00:14.052Z,12.86
2022-09-25T19:02:43.295Z,12.84
2022-09-25T19:05:12.635Z,12.79
2022-09-25T19:07:42.255Z,12.77
2022-09-25T19:10:11.610Z,12.75
2022-09-25T19:12:40.388Z,12.74
2022-09-25T19:15:10.459Z,12.74
2022-09-25T19:17:38.161Z,12.75
2022-09-25T19:20:08.463Z,12.74
2022-09-25T19:22:37.161Z,12.72
2022-09-25T19:25:06.302Z,12.69
2022-09-25T19:27:34.368Z,12.67
2022-09-25T19:30:02.099Z,12.65
2022-09-25T19:32:30.821Z,12.62
2022-09-25T19:35:00.316Z,12.66
2022-09-25T19:37:33.481Z,12.70
2022-09-25T19:40:20.871Z,12.72
2022-09-25T19:42:50.802Z,12.73
2022-09-25T19:45:20.726Z,12.74
2022-09-25T19:47:49.311Z,12.76
2022-09-25T19:50:19.540Z,12.76
2022-09-25T19:52:51.067Z,12.76
2022-09-25T19:55:20.512Z,12.74
2022-09-25T19:57:48.572Z,12.75
2022-09-25T20:00:18.358Z,12.76
2022-09-25T20:02:47.772Z,12.75
2022-09-25T20:05:17.938Z,12.76
2022-09-25T20:07:46.288Z,12.76
2022-09-25T20:10:15.303Z,12.75
2022-09-25T20:12:43.219Z,12.75
2022-09-25T20:15:11.613Z,12.74
2022-09-25T20:17:39.751Z,12.71
2022-09-25T20:20:08.855Z,12.71
2022-09-25T20:22:36.987Z,12.72
2022-09-25T20:25:06.210Z,12.74
2022-09-25T20:27:34.394Z,12.75
2022-09-25T20:30:02.363Z,12.77
2022-09-25T20:32:32.415Z,12.76
2022-09-25T20:35:00.767Z,12.77
2022-09-25T20:37:29.309Z,12.76
2022-09-25T20:39:57.447Z,12.76
2022-09-25T20:42:25.920Z,12.77
2022-09-25T20:44:56.080Z,12.78
2022-09-25T20:47:24.064Z,12.77
2022-09-25T20:49:52.814Z,12.75
2022-09-25T20:52:20.741Z,12.73
2022-09-25T20:54:49.141Z,12.71
2022-09-25T20:57:17.282Z,12.69
2022-09-25T20:59:44.975Z,12.66
2022-09-25T21:02:14.315Z,12.64
2022-09-25T21:04:46.432Z,12.62
2022-09-25T21:07:16.963Z,12.63
2022-09-25T21:09:46.226Z,12.64
2022-09-25T21:12:15.313Z,12.65
2022-09-25T21:14:43.044Z,12.64
2022-09-25T21:17:11.485Z,12.62
2022-09-25T21:19:40.598Z,12.60
2022-09-25T21:22:08.871Z,12.54
2022-09-25T21:24:37.464Z,12.56
2022-09-25T21:27:06.263Z,12.56
2022-09-25T21:29:34.332Z,12.57
2022-09-25T21:32:03.892Z,12.56
2022-09-25T21:34:32.365Z,12.51
2022-09-25T21:37:00.779Z,12.46
2022-09-25T21:39:29.128Z,12.46
2022-09-25T21:41:57.054Z,12.47
2022-09-25T21:44:26.670Z,12.45
2022-09-25T21:46:54.827Z,12.45
2022-09-25T21:49:22.715Z,12.44
2022-09-25T21:51:51.382Z,12.44
2022-09-25T21:54:21.603Z,12.43
2022-09-25T21:56:49.347Z,12.44
2022-09-25T21:59:18.917Z,12.46
2022-09-25T22:01:49.515Z,12.48
2022-09-25T22:04:17.971Z,12.50
2022-09-25T22:06:48.914Z,12.49
2022-09-25T22:09:20.538Z,12.47
2022-09-25T22:11:51.836Z,12.46
2022-09-25T22:14:21.887Z,12.46
2022-09-25T22:16:53.402Z,12.46
2022-09-25T22:19:26.254Z,12.44
2022-09-25T22:21:58.628Z,12.43
2022-09-25T22:24:27.762Z,12.40
2022-09-25T22:26:56.759Z,12.39
2022-09-25T22:29:27.460Z,12.38
2022-09-25T22:31:55.385Z,12.38
2022-09-25T22:34:28.253Z,12.35
2022-09-25T22:37:00.036Z,12.34
2022-09-25T22:39:31.714Z,12.35
2022-09-25T22:42:00.308Z,12.35
2022-09-25T22:44:28.887Z,12.34
2022-09-25T22:46:58.252Z,12.34
2022-09-25T22:49:26.874Z,12.36
2022-09-25T22:51:55.510Z,12.36
2022-09-25T22:54:23.242Z,12.38
2022-09-25T22:56:53.560Z,12.35
2022-09-25T22:59:22.150Z,12.33
2022-09-25T23:01:54.585Z,12.32
2022-09-25T23:04:24.819Z,12.31
2022-09-25T23:06:53.555Z,12.32
2022-09-25T23:09:27.363Z,12.31
2022-09-25T23:11:57.593Z,12.30
2022-09-25T23:14:30.485Z,12.29
2022-09-25T23:17:03.501Z,12.29
2022-09-25T23:19:32.269Z,12.31
2022-09-25T23:22:00.981Z,12.32
2022-09-25T23:24:28.957Z,12.35
2022-09-25T23:26:56.971Z,12.34
2022-09-25T23:29:24.932Z,12.36
2022-09-25T23:31:53.536Z,12.36
2022-09-25T23:34:22.603Z,12.38
2022-09-25T23:36:50.548Z,12.39
2022-09-25T23:39:20.340Z,12.41
2022-09-25T23:41:49.007Z,12.41
2022-09-25T23:44:18.249Z,12.42
2022-09-25T23:46:47.670Z,12.42
2022-09-25T23:49:15.817Z,12.44
2022-09-25T23:51:46.945Z,12.45
2022-09-25T23:54:15.701Z,12.44
2022-09-25T23:56:44.910Z,12.41
2022-09-25T23:59:14.013Z,12.40
